Time;durP1;ratioP1;P1;durP2;ratioP2;P2;SDS_P1;SDS_P2;PMS_P1;PMS_P2;Temp;Humidity;BMP_temperature;BMP_pressure;BME280_temperature;BME280_humidity;BME280_pressure;Samples;Min_cycle;Max_cycle;Signal;HPM_P1;HPM_P2
2021/07/01 00:01:00;;;;;;;24.00;12.90;;;;;;;13.55;100.00;99965.66;4980199;28;20030;-79
2021/07/01 00:03:25;;;;;;;21.75;11.98;;;;;;;13.52;100.00;99967.56;4979818;28;20026;-79
2021/07/01 00:05:50;;;;;;;19.50;11.93;;;;;;;13.54;100.00;99963.94;4979781;28;20018;-79
2021/07/01 00:08:15;;;;;;;20.10;11.93;;;;;;;13.53;100.00;99956.22;4997259;28;20034;-79
2021/07/01 00:10:41;;;;;;;19.38;10.98;;;;;;;13.50;100.00;99959.78;4979716;28;20022;-79
2021/07/01 00:13:06;;;;;;;20.38;11.80;;;;;;;13.56;100.00;99956.94;4979246;28;20087;-79
2021/07/01 00:15:34;;;;;;;17.50;10.77;;;;;;;13.52;100.00;99957.97;4997119;28;20058;-79
2021/07/01 00:18:00;;;;;;;19.80;10.43;;;;;;;13.51;100.00;99956.25;4996920;28;20105;-79
2021/07/01 00:20:26;;;;;;;16.45;10.55;;;;;;;13.52;100.00;99955.38;4996855;28;20107;-79
2021/07/01 00:22:52;;;;;;;17.02;10.70;;;;;;;13.55;100.00;99957.84;4996898;28;20081;-79
2021/07/01 00:25:18;;;;;;;18.05;9.93;;;;;;;13.51;100.00;99956.25;4979332;28;20065;-79
2021/07/01 00:27:44;;;;;;;18.35;9.48;;;;;;;13.54;100.00;99952.69;4979425;28;20030;-79
2021/07/01 00:30:11;;;;;;;14.38;8.85;;;;;;;13.55;100.00;99951.81;4996968;28;20161;-79
2021/07/01 00:32:37;;;;;;;17.45;9.23;;;;;;;13.57;100.00;99953.41;4996717;28;20034;-79
2021/07/01 00:35:03;;;;;;;14.00;8.10;;;;;;;13.59;100.00;99950.75;4996606;28;20018;-79
2021/07/01 00:37:29;;;;;;;12.98;7.93;;;;;;;13.58;100.00;99955.13;4979089;28;20157;-80
2021/07/01 00:39:55;;;;;;;13.38;7.13;;;;;;;13.62;100.00;99950.63;4996644;28;20077;-79
2021/07/01 00:42:21;;;;;;;13.02;7.28;;;;;;;13.54;100.00;99953.53;4996271;28;20030;-79
2021/07/01 00:44:47;;;;;;;16.70;7.45;;;;;;;13.50;100.00;99951.97;4996126;28;20026;-79
2021/07/01 00:47:12;;;;;;;14.80;6.53;;;;;;;13.51;100.00;99953.66;4996804;28;20378;-79
2021/07/01 00:49:37;;;;;;;10.45;6.70;;;;;;;13.56;100.00;99943.91;4978912;28;20054;-79
2021/07/01 00:52:03;;;;;;;9.73;5.57;;;;;;;13.55;100.00;99937.00;4978894;28;20363;-79
2021/07/01 00:54:28;;;;;;;10.27;6.03;;;;;;;13.55;100.00;99938.78;4996437;28;20030;-79
2021/07/01 00:56:53;;;;;;;10.60;6.00;;;;;;;13.56;100.00;99940.47;4978528;28;20038;-79
2021/07/01 00:59:20;;;;;;;9.32;5.68;;;;;;;13.56;100.00;99930.03;4979132;28;20030;-79
2021/07/01 01:01:46;;;;;;;9.48;5.18;;;;;;;13.52;100.00;99931.09;4996168;28;20483;-79
2021/07/01 01:04:11;;;;;;;10.65;5.70;;;;;;;13.53;100.00;99936.22;4978737;28;20026;-79
2021/07/01 01:06:37;;;;;;;9.70;5.38;;;;;;;13.52;100.00;99934.53;4996291;28;20022;-79
2021/07/01 01:09:06;;;;;;;9.90;5.38;;;;;;;13.48;100.00;99930.34;4996706;28;20102;-79
2021/07/01 01:11:31;;;;;;;9.15;5.07;;;;;;;13.51;100.00;99934.56;4995895;28;20085;-79
2021/07/01 01:13:56;;;;;;;8.27;5.18;;;;;;;13.50;100.00;99933.72;4978201;28;20058;-79
2021/07/01 01:16:22;;;;;;;9.05;4.65;;;;;;;13.52;100.00;99929.31;4978470;28;20030;-79
2021/07/01 01:18:49;;;;;;;9.85;4.82;;;;;;;13.45;100.00;99927.84;4978178;28;20022;-79
2021/07/01 01:21:16;;;;;;;9.45;5.60;;;;;;;13.49;100.00;99934.66;4977863;28;20030;-79
2021/07/01 01:23:42;;;;;;;10.10;5.70;;;;;;;13.48;100.00;99935.53;4978326;28;20030;-79
2021/07/01 01:26:08;;;;;;;11.30;5.68;;;;;;;13.43;100.00;99927.09;4978079;28;20487;-79
2021/07/01 01:28:35;;;;;;;10.02;5.22;;;;;;;13.44;100.00;99928.75;4978462;28;20050;-79
2021/07/01 01:31:01;;;;;;;10.02;5.63;;;;;;;13.40;100.00;99922.00;4995663;28;20069;-79
2021/07/01 01:33:27;;;;;;;11.02;5.30;;;;;;;13.39;100.00;99919.44;4978311;28;20122;-79
2021/07/01 01:35:52;;;;;;;11.45;6.22;;;;;;;13.38;100.00;99917.75;4996574;28;20065;-79
2021/07/01 01:38:18;;;;;;;9.75;5.93;;;;;;;13.36;100.00;99925.59;4978046;28;20049;-79
2021/07/01 01:40:47;;;;;;;10.00;5.95;;;;;;;13.37;100.00;99918.66;4977802;28;20113;-79
2021/07/01 01:43:13;;;;;;;12.13;6.53;;;;;;;13.41;100.00;99923.69;4995211;28;20026;-79
2021/07/01 01:45:40;;;;;;;13.27;7.20;;;;;;;13.40;100.00;99915.94;4995219;28;20474;-79
2021/07/01 01:48:06;;;;;;;9.95;6.78;;;;;;;13.34;100.00;99912.66;4978211;28;20105;-79
2021/07/01 01:50:32;;;;;;;10.95;6.63;;;;;;;13.37;100.00;99916.06;4977533;28;20054;-79
2021/07/01 01:52:58;;;;;;;10.52;6.85;;;;;;;13.31;100.00;99906.72;4977979;28;20022;-79
2021/07/01 01:55:23;;;;;;;13.05;7.68;;;;;;;13.31;100.00;99906.72;4978032;28;20019;-79
2021/07/01 01:57:50;;;;;;;12.57;7.53;;;;;;;13.30;100.00;99900.69;4995048;28;20033;-79
2021/07/01 02:00:20;;;;;;;11.25;6.90;;;;;;;13.32;100.00;99903.22;4977980;28;20030;-79
2021/07/01 02:02:46;;;;;;;12.52;7.00;;;;;;;13.26;100.00;99903.47;4977238;28;20037;-79
2021/07/01 02:05:12;;;;;;;12.90;6.80;;;;;;;13.27;100.00;99899.94;4994999;28;20045;-79
2021/07/01 02:07:38;;;;;;;10.25;6.18;;;;;;;13.32;100.00;99900.59;4994996;28;20022;-79
2021/07/01 02:10:07;;;;;;;9.75;6.15;;;;;;;13.29;100.00;99898.13;4977409;28;20033;-79
2021/07/01 02:12:32;;;;;;;10.25;6.55;;;;;;;13.32;100.00;99895.41;4977269;28;20545;-79
2021/07/01 02:14:58;;;;;;;12.98;6.18;;;;;;;13.27;100.00;99897.31;4994668;28;20097;-79
2021/07/01 02:17:24;;;;;;;10.93;6.30;;;;;;;13.24;100.00;99900.03;4994954;28;20034;-79
2021/07/01 02:19:49;;;;;;;9.68;5.95;;;;;;;13.32;100.00;99898.00;4977248;28;20389;-79
2021/07/01 02:22:15;;;;;;;12.50;6.13;;;;;;;13.30;100.00;99899.81;4994493;28;20058;-79
2021/07/01 02:24:40;;;;;;;11.40;6.35;;;;;;;13.28;100.00;99904.25;4994710;28;20030;-79
2021/07/01 02:27:06;;;;;;;11.85;5.93;;;;;;;13.25;100.00;99904.38;4994965;28;20022;-79
2021/07/01 02:29:31;;;;;;;11.57;5.78;;;;;;;13.26;100.00;99900.84;4994714;28;20030;-79
2021/07/01 02:31:57;;;;;;;9.35;6.13;;;;;;;13.23;100.00;99899.19;4976321;28;20033;-79
2021/07/01 02:34:22;;;;;;;10.88;6.38;;;;;;;13.25;100.00;99904.38;4976945;28;20064;-79
2021/07/01 02:36:47;;;;;;;11.45;6.03;;;;;;;13.24;100.00;99902.63;4994690;28;20481;-79
2021/07/01 02:39:12;;;;;;;11.05;6.57;;;;;;;13.21;100.00;99902.75;4977095;28;20029;-79
2021/07/01 02:41:38;;;;;;;14.00;7.03;;;;;;;13.17;100.00;99901.19;4994183;28;20030;-79
2021/07/01 02:44:03;;;;;;;12.32;6.70;;;;;;;13.23;100.00;99908.75;4976891;28;20678;-79
2021/07/01 02:46:29;;;;;;;10.60;6.75;;;;;;;13.24;100.00;99895.69;4977543;28;20027;-80
2021/07/01 02:48:55;;;;;;;14.02;6.82;;;;;;;13.19;100.00;99904.59;4976841;28;20482;-80
2021/07/01 02:51:20;;;;;;;14.48;6.60;;;;;;;13.20;100.00;99893.25;4976743;28;20117;-80
2021/07/01 02:53:45;;;;;;;13.98;7.03;;;;;;;13.21;100.00;99897.53;4976461;28;20030;-79
2021/07/01 02:56:10;;;;;;;13.75;6.35;;;;;;;13.19;100.00;99902.81;4994261;28;20029;-79
2021/07/01 02:58:36;;;;;;;10.90;6.90;;;;;;;13.11;100.00;99900.50;4976557;28;20033;-79
2021/07/01 03:01:01;;;;;;;12.23;6.15;;;;;;;13.09;100.00;99897.13;4994190;28;20030;-79
2021/07/01 03:03:27;;;;;;;12.32;6.25;;;;;;;13.10;100.00;99906.63;4976751;28;20541;-79
2021/07/01 03:05:52;;;;;;;17.20;6.50;;;;;;;13.17;100.00;99907.22;4976955;28;20094;-79
2021/07/01 03:08:17;;;;;;;22.02;6.68;;;;;;;13.07;100.00;99901.53;4994405;28;20034;-79
2021/07/01 03:10:43;;;;;;;14.48;6.32;;;;;;;13.06;100.00;99899.84;4977178;28;20046;-79
2021/07/01 03:13:08;;;;;;;11.68;5.35;;;;;;;12.98;100.00;99899.28;4977468;28;20019;-79
2021/07/01 03:15:33;;;;;;;11.68;5.15;;;;;;;12.99;100.00;99901.00;4977081;28;20033;-79
2021/07/01 03:17:59;;;;;;;12.07;5.20;;;;;;;13.01;100.00;99893.13;4977260;28;20423;-79
2021/07/01 03:20:25;;;;;;;9.45;4.70;;;;;;;13.07;100.00;99898.94;4994131;28;20026;-79
2021/07/01 03:22:50;;;;;;;8.73;4.18;;;;;;;13.04;100.00;99893.00;4993765;28;20113;-79
2021/07/01 03:25:15;;;;;;;7.85;3.78;;;;;;;13.03;100.00;99893.94;4993898;28;20034;-79
2021/07/01 03:27:41;;;;;;;9.25;4.20;;;;;;;13.10;100.00;99901.44;4976485;28;20054;-78
2021/07/01 03:30:07;;;;;;;7.10;4.00;;;;;;;13.08;100.00;99891.97;4976457;28;20041;-79
2021/07/01 03:32:32;;;;;;;5.90;3.30;;;;;;;13.00;100.00;99897.50;4995239;28;20489;-79
2021/07/01 03:34:57;;;;;;;7.70;3.70;;;;;;;13.09;100.00;99902.34;4976474;28;20109;-79
2021/07/01 03:37:22;;;;;;;6.93;3.35;;;;;;;13.07;100.00;99904.16;4976664;28;20410;-79
2021/07/01 03:39:48;;;;;;;6.93;3.70;;;;;;;13.05;100.00;99905.09;4996404;28;20076;-79
2021/07/01 03:42:13;;;;;;;11.00;4.22;;;;;;;13.12;100.00;99904.81;4979830;28;20500;-78
2021/07/01 03:44:38;;;;;;;10.82;4.43;;;;;;;13.05;100.00;99900.78;4998672;28;20027;-79
2021/07/01 03:47:06;;;;;;;8.48;4.97;;;;;;;13.09;100.00;99898.91;4981423;28;20037;-79
2021/07/01 03:49:32;;;;;;;9.85;4.82;;;;;;;13.05;100.00;99903.38;4998907;28;20482;-79
2021/07/01 03:51:57;;;;;;;11.80;5.97;;;;;;;13.05;100.00;99905.97;4998124;28;20034;-79
2021/07/01 03:54:22;;;;;;;8.75;4.97;;;;;;;13.06;100.00;99902.47;4998002;28;20026;-79
2021/07/01 03:56:47;;;;;;;8.18;4.75;;;;;;;13.10;100.00;99904.03;4980622;28;20030;-79
2021/07/01 03:59:14;;;;;;;7.70;4.47;;;;;;;13.08;100.00;99895.44;4981548;28;20046;-79
2021/07/01 04:01:41;;;;;;;10.27;5.07;;;;;;;13.09;100.00;99889.31;4998502;28;20033;-79
2021/07/01 04:04:06;;;;;;;8.38;4.82;;;;;;;13.12;100.00;99899.63;4999076;28;20022;-79
2021/07/01 04:06:32;;;;;;;10.52;5.75;;;;;;;13.15;100.00;99896.06;4981183;28;20550;-79
2021/07/01 04:08:57;;;;;;;9.40;5.15;;;;;;;13.09;100.00;99897.13;4981487;28;20018;-79
2021/07/01 04:11:23;;;;;;;9.07;5.07;;;;;;;13.10;100.00;99904.03;4980765;28;20089;-79
2021/07/01 04:13:48;;;;;;;10.20;5.30;;;;;;;13.18;100.00;99902.88;4980686;28;20113;-79
2021/07/01 04:16:13;;;;;;;10.32;4.78;;;;;;;13.19;100.00;99900.22;4997873;28;20073;-79
2021/07/01 04:18:38;;;;;;;9.27;5.00;;;;;;;13.13;100.00;99892.66;4979632;28;20482;-79
2021/07/01 04:21:04;;;;;;;9.77;4.38;;;;;;;13.14;100.00;99899.53;4979755;28;20092;-79
2021/07/01 04:23:30;;;;;;;8.95;4.38;;;;;;;13.14;100.00;99896.94;4997279;28;20022;-79
2021/07/01 04:25:56;;;;;;;7.22;4.40;;;;;;;13.19;100.00;99892.41;4979715;28;20022;-79
2021/07/01 04:28:21;;;;;;;11.45;5.03;;;;;;;13.19;100.00;99900.22;4980263;28;20074;-79
2021/07/01 04:30:47;;;;;;;11.25;4.82;;;;;;;13.27;100.00;99903.41;4979366;28;20052;-79
2021/07/01 04:33:12;;;;;;;8.65;4.53;;;;;;;13.23;100.00;99895.72;4979953;28;20102;-79
2021/07/01 04:35:37;;;;;;;7.30;4.13;;;;;;;13.20;100.00;99891.47;4979638;28;20545;-79
2021/07/01 04:38:03;;;;;;;9.50;4.47;;;;;;;13.28;100.00;99891.22;4979919;28;20033;-79
2021/07/01 04:40:28;;;;;;;10.25;4.72;;;;;;;13.27;100.00;99892.13;4979865;28;20048;-79
2021/07/01 04:42:53;;;;;;;9.07;4.72;;;;;;;13.23;100.00;99893.13;4978833;28;20027;-79
2021/07/01 04:45:19;;;;;;;10.23;5.07;;;;;;;13.24;100.00;99894.81;4997428;28;20109;-79
2021/07/01 04:47:44;;;;;;;9.80;5.03;;;;;;;13.28;100.00;99897.28;4997156;28;20044;-79
2021/07/01 04:50:10;;;;;;;8.88;5.18;;;;;;;13.22;100.00;99894.03;5038244;23;20057;-79
2021/07/01 04:52:36;;;;;;;9.25;5.03;;;;;;;13.37;100.00;99898.69;5015055;28;20030;-79
2021/07/01 04:55:02;;;;;;;8.40;5.03;;;;;;;13.38;100.00;99900.34;4998541;28;20022;-79
2021/07/01 04:57:27;;;;;;;9.30;4.95;;;;;;;13.28;100.00;99897.28;4978912;28;20056;-79
2021/07/01 04:59:52;;;;;;;7.63;4.18;;;;;;;13.46;100.00;99902.66;4996733;28;20434;-80
2021/07/01 05:02:18;;;;;;;6.57;4.28;;;;;;;13.39;100.00;99893.38;4979035;28;20391;-79
2021/07/01 05:04:43;;;;;;;7.40;3.92;;;;;;;13.31;100.00;99893.72;4979174;28;20029;-79
2021/07/01 05:07:08;;;;;;;7.55;3.83;;;;;;;13.42;100.00;99898.47;4996238;28;20061;-79
2021/07/01 05:09:33;;;;;;;7.00;3.63;;;;;;;13.38;100.00;99896.91;4996997;28;20022;-79
2021/07/01 05:11:59;;;;;;;6.60;3.80;;;;;;;13.28;100.00;99897.28;4996702;28;20026;-79
2021/07/01 05:14:24;;;;;;;8.32;3.45;;;;;;;13.34;100.00;99899.63;4979097;28;20558;-79
2021/07/01 05:16:49;;;;;;;6.00;3.20;;;;;;;13.36;100.00;99891.75;4997022;28;20030;-79
2021/07/01 05:19:15;;;;;;;7.00;3.72;;;;;;;13.36;100.00;99899.56;4996602;28;20031;-79
2021/07/01 05:21:40;;;;;;;7.43;4.05;;;;;;;13.39;100.00;99896.84;4996993;28;20026;-80
2021/07/01 05:24:05;;;;;;;6.65;3.33;;;;;;;13.37;100.00;99897.84;4979648;28;20029;-79
2021/07/01 05:26:31;;;;;;;5.15;2.85;;;;;;;13.37;100.00;99898.69;4979911;28;20042;-79
2021/07/01 05:28:56;;;;;;;5.70;3.00;;;;;;;13.31;100.00;99898.91;4996354;28;20033;-79
2021/07/01 05:31:21;;;;;;;6.22;2.75;;;;;;;13.39;100.00;99894.22;4996962;28;20027;-79
2021/07/01 05:33:47;;;;;;;5.30;2.80;;;;;;;13.37;100.00;99898.69;4997170;28;20033;-79
2021/07/01 05:36:12;;;;;;;6.43;2.45;;;;;;;13.36;100.00;99894.34;4996402;28;20469;-79
2021/07/01 05:38:37;;;;;;;7.70;2.85;;;;;;;13.41;100.00;99897.63;4996747;28;20030;-79
2021/07/01 05:41:03;;;;;;;6.13;2.53;;;;;;;13.33;100.00;99902.28;4997987;28;20081;-79
2021/07/01 05:43:28;;;;;;;6.90;2.72;;;;;;;13.35;100.00;99898.72;5007363;28;20030;-79
2021/07/01 05:45:54;;;;;;;6.00;2.40;;;;;;;13.29;100.00;99898.97;5007786;28;20076;-79
2021/07/01 05:48:21;;;;;;;5.90;2.40;;;;;;;13.42;100.00;99903.69;5006998;28;20023;-80
2021/07/01 05:53:33;;;;;;;;;;;;;;;13.40;100.00;99900.31;5007414;28;20062;-79
2021/07/01 05:55:59;;;;;;;5.15;2.60;;;;;;;13.38;100.00;99905.56;4988304;28;19952;-79
2021/07/01 05:58:24;;;;;;;5.22;2.47;;;;;;;13.35;100.00;99903.94;4989672;28;20022;-79
2021/07/01 06:00:49;;;;;;;5.90;2.50;;;;;;;13.32;100.00;99903.22;5007932;28;20030;-83
2021/07/01 06:03:15;;;;;;;5.10;2.50;;;;;;;13.38;100.00;99910.78;4994834;28;20034;-80
2021/07/01 06:05:44;;;;;;;6.50;2.53;;;;;;;13.39;100.00;99909.00;4994575;28;20034;-81
2021/07/01 06:08:11;;;;;;;5.38;2.33;;;;;;;13.40;100.00;99908.13;4994937;28;20026;-81
2021/07/01 06:10:41;;;;;;;5.80;2.40;;;;;;;13.35;100.00;99914.34;4994645;28;20022;-81
2021/07/01 06:13:07;;;;;;;4.93;2.25;;;;;;;13.39;100.00;99909.84;4977470;28;20041;-81
2021/07/01 06:15:34;;;;;;;6.40;2.53;;;;;;;13.42;100.00;99911.50;4994536;28;20107;-81
2021/07/01 06:18:00;;;;;;;9.10;1.90;;;;;;;13.35;100.00;99916.09;4977885;28;20030;-81
2021/07/01 06:20:26;;;;;;;4.63;1.58;;;;;;;13.38;100.00;99913.38;4978365;28;20038;-80
2021/07/01 06:22:52;;;;;;;5.53;1.80;;;;;;;13.37;100.00;99921.28;4996155;28;20065;-79
2021/07/01 06:25:18;;;;;;;5.18;1.48;;;;;;;13.43;100.00;99915.81;4978762;28;20022;-79
2021/07/01 06:27:43;;;;;;;4.53;1.20;;;;;;;13.36;100.00;99915.19;4995807;28;20033;-79
2021/07/01 06:30:20;;;;;;;3.83;1.50;;;;;;;13.42;100.00;99916.72;4979639;28;20030;-80
2021/07/01 06:32:46;;;;;;;3.45;1.30;;;;;;;13.54;100.00;99914.44;4979479;28;20332;-80
2021/07/01 06:35:16;;;;;;;3.28;1.30;;;;;;;13.64;100.00;99914.94;4996776;28;20032;-79
2021/07/01 06:37:42;;;;;;;7.78;1.70;;;;;;;13.72;100.00;99918.06;4997664;28;20031;-79
2021/07/01 06:40:09;;;;;;;4.20;1.33;;;;;;;13.74;100.00;99912.81;4996993;28;20582;-80
2021/07/01 06:42:52;;;;;;;3.50;1.00;;;;;;;13.76;100.00;99918.78;4980518;28;20036;-80
2021/07/01 06:45:18;;;;;;;3.20;0.80;;;;;;;13.84;100.00;99927.13;5004695;28;20026;-79
2021/07/01 06:47:49;;;;;;;3.65;1.02;;;;;;;13.83;100.00;99925.44;4986983;28;20050;-80
2021/07/01 06:50:17;;;;;;;1.63;0.70;;;;;;;13.80;100.00;99928.19;5002651;28;20529;-79
2021/07/01 06:52:45;;;;;;;1.42;0.65;;;;;;;13.87;100.00;99924.41;4984681;28;20026;-79
2021/07/01 06:55:13;;;;;;;3.60;0.80;;;;;;;13.84;100.00;99932.34;4984569;28;20029;-79
2021/07/01 06:57:53;;;;;;;2.47;0.65;;;;;;;13.82;100.00;99931.56;4983772;28;20029;-79
2021/07/01 07:00:20;;;;;;;1.95;0.80;;;;;;;14.03;100.00;99933.25;5001530;28;20101;-80
2021/07/01 07:02:46;;;;;;;2.00;0.80;;;;;;;14.00;100.00;99924.72;4984554;28;20022;-79
2021/07/01 07:05:16;;;;;;;1.83;0.70;;;;;;;14.03;100.00;99928.03;5002697;28;20053;-79
2021/07/01 07:07:43;;;;;;;2.15;0.90;;;;;;;14.07;100.00;99935.75;5000966;28;20053;-79
2021/07/01 07:10:11;;;;;;;1.77;0.90;;;;;;;14.07;100.00;99939.22;4987392;28;20038;-80
2021/07/01 07:12:44;;;;;;;2.42;1.00;;;;;;;14.32;100.00;99931.19;4986611;28;20450;-79
2021/07/01 07:15:12;;;;;;;2.53;0.93;;;;;;;14.24;100.00;99938.47;5003003;28;20030;-79
2021/07/01 07:17:38;;;;;;;2.28;0.90;;;;;;;14.41;100.00;99932.50;4987437;28;20157;-80
2021/07/01 07:20:05;;;;;;;2.95;1.30;;;;;;;14.56;100.00;99934.47;5006211;28;20041;-80
2021/07/01 07:22:34;;;;;;;2.55;1.05;;;;;;;14.59;100.00;99939.56;4987889;28;20026;-81
2021/07/01 07:25:08;;;;;;;3.03;1.30;;;;;;;14.74;100.00;99936.25;5007267;28;20037;-80
2021/07/01 07:27:36;;;;;;;3.20;1.13;;;;;;;14.82;100.00;99938.53;4989351;28;20030;-80
2021/07/01 07:30:01;;;;;;;3.30;1.20;;;;;;;14.86;100.00;99934.84;4997127;28;20027;-80
2021/07/01 07:32:29;;;;;;;3.13;1.30;;;;;;;14.86;100.00;99939.22;5022002;28;20021;-78
2021/07/01 07:34:54;;;;;;;3.35;1.38;;;;;;;14.98;100.00;99933.44;4995699;28;20068;-79
2021/07/01 07:37:20;;;;;;;3.80;1.60;;;;;;;15.03;100.00;99941.94;4985949;28;20090;-79
2021/07/01 07:39:46;;;;;;;4.20;1.67;;;;;;;14.98;100.00;99945.66;4986047;28;20049;-79
2021/07/01 07:42:13;;;;;;;4.05;1.55;;;;;;;14.95;100.00;99939.66;4985373;28;20027;-80
2021/07/01 07:44:39;;;;;;;3.50;1.50;;;;;;;14.91;100.00;99948.56;4987305;28;20054;-80
2021/07/01 07:47:09;;;;;;;3.58;1.80;;;;;;;14.94;100.00;99947.56;4992606;28;20037;-80
2021/07/01 07:49:34;;;;;;;4.13;1.80;;;;;;;15.00;100.00;99947.28;5009702;28;20030;-80
2021/07/01 07:52:07;;;;;;;4.10;2.20;;;;;;;15.02;100.00;99944.59;5007441;28;20133;-80
2021/07/01 07:54:46;;;;;;;4.35;2.20;;;;;;;15.06;100.00;99941.78;4989113;28;20401;-79
2021/07/01 07:57:18;;;;;;;4.13;2.00;;;;;;;15.07;100.00;99943.47;4988968;28;20030;-80
2021/07/01 07:59:50;;;;;;;3.95;1.98;;;;;;;15.02;100.00;99944.59;5006591;28;20026;-80
2021/07/01 08:02:40;;;;;;;3.85;2.00;;;;;;;15.11;100.00;99952.00;4990424;28;20022;-80
2021/07/01 08:05:06;;;;;;;4.63;2.10;;;;;;;15.10;100.00;99947.72;5006874;28;20037;-79
2021/07/01 08:07:32;;;;;;;9.25;2.88;;;;;;;15.17;100.00;99949.09;5006885;28;20022;-80
2021/07/01 08:10:00;;;;;;;4.65;2.78;;;;;;;15.18;100.00;99951.66;5006404;28;20053;-79
2021/07/01 08:12:28;;;;;;;5.30;3.10;;;;;;;15.17;100.00;99949.09;4988752;28;20023;-79
2021/07/01 08:14:54;;;;;;;5.15;2.78;;;;;;;15.13;100.00;99952.78;5005601;28;20483;-79
2021/07/01 08:17:20;;;;;;;4.90;2.95;;;;;;;15.20;100.00;99949.81;5006492;28;20030;-79
2021/07/01 08:19:45;;;;;;;5.93;2.95;;;;;;;15.27;100.00;99955.63;5006140;28;20037;-79
2021/07/01 08:22:12;;;;;;;5.38;3.20;;;;;;;15.28;100.00;99957.28;4985283;28;20022;-79
2021/07/01 08:24:38;;;;;;;5.07;3.30;;;;;;;15.32;100.00;99958.81;4985343;28;20042;-79
2021/07/01 08:27:04;;;;;;;7.20;3.47;;;;;;;15.47;100.00;99965.09;4985463;28;20030;-79
2021/07/01 08:29:29;;;;;;;8.15;4.00;;;;;;;15.49;100.00;99965.03;5002505;28;20031;-79
2021/07/01 08:32:05;;;;;;;5.70;3.83;;;;;;;15.51;100.00;99971.03;4985758;28;20426;-79
2021/07/01 08:34:34;;;;;;;5.95;4.10;;;;;;;15.55;100.00;99968.19;4989102;28;20038;-79
2021/07/01 08:37:00;;;;;;;6.55;3.90;;;;;;;15.58;100.00;99975.06;4988339;28;20199;-79
2021/07/01 08:39:29;;;;;;;6.25;4.45;;;;;;;15.60;100.00;99979.25;4988632;28;20489;-80
2021/07/01 08:41:57;;;;;;;6.38;4.28;;;;;;;15.69;100.00;99983.22;4987786;28;20409;-79
2021/07/01 08:44:30;;;;;;;7.25;4.80;;;;;;;15.58;100.00;99980.28;5005982;28;20497;-79
2021/07/01 08:47:09;;;;;;;6.57;4.30;;;;;;;15.73;100.00;99976.94;5006680;28;20027;-79
2021/07/01 08:49:46;;;;;;;6.60;4.13;;;;;;;15.87;100.00;99982.34;4988709;28;20034;-79
2021/07/01 08:52:14;;;;;;;7.00;4.90;;;;;;;15.75;100.00;99977.72;5005461;28;20026;-79
2021/07/01 08:54:43;;;;;;;7.80;5.15;;;;;;;15.85;100.00;99978.09;5006636;28;20030;-79
2021/07/01 08:57:15;;;;;;;7.55;4.80;;;;;;;15.84;100.00;99979.03;5005996;28;20394;-80
2021/07/01 08:59:54;;;;;;;7.15;5.05;;;;;;;15.87;100.00;99982.34;5006537;28;20026;-80
2021/07/01 09:02:23;;;;;;;7.25;5.07;;;;;;;15.86;100.00;99977.19;5007532;28;20045;-80
2021/07/01 09:04:54;;;;;;;7.43;5.35;;;;;;;15.93;100.00;99977.72;4989990;28;20096;-79
2021/07/01 09:07:21;;;;;;;8.77;5.13;;;;;;;15.94;100.00;99982.88;5008132;28;20040;-79
2021/07/01 09:09:54;;;;;;;8.77;6.13;;;;;;;16.07;100.00;99983.97;5009151;28;20057;-79
2021/07/01 09:12:22;;;;;;;9.82;6.50;;;;;;;16.11;100.00;99982.03;5007405;28;20026;-79
2021/07/01 09:14:54;;;;;;;9.65;6.13;;;;;;;16.18;100.00;99983.41;4990164;28;20037;-80
2021/07/01 09:17:24;;;;;;;8.77;6.97;;;;;;;16.22;100.00;99987.56;5008182;28;20026;-79
2021/07/01 09:19:53;;;;;;;10.73;6.72;;;;;;;16.13;100.00;99989.81;5008364;28;20053;-79
2021/07/01 09:22:21;;;;;;;9.48;6.63;;;;;;;16.13;100.00;99997.66;5004665;28;20438;-80
2021/07/01 09:24:50;;;;;;;7.97;6.65;;;;;;;16.16;100.00;99998.34;5004993;28;20026;-79
2021/07/01 09:27:16;;;;;;;8.10;6.40;;;;;;;16.23;100.00;99994.50;4987316;28;20022;-79
2021/07/01 09:29:44;;;;;;;8.00;6.55;;;;;;;16.37;100.00;99991.19;5006052;28;20501;-80
2021/07/01 09:32:11;;;;;;;8.25;6.70;;;;;;;16.60;100.00;99991.78;4987877;28;20439;-80
2021/07/01 09:34:39;;;;;;;8.82;5.60;;;;;;;16.62;100.00;99995.97;5004604;28;20036;-79
2021/07/01 09:37:04;;;;;;;8.00;5.35;;;;;;;16.57;100.00;99988.38;5003461;28;20497;-80
2021/07/01 09:39:32;;;;;;;7.18;5.45;;;;;;;16.47;100.00;99994.16;5003952;28;20030;-80
2021/07/01 09:42:01;;;;;;;6.50;4.40;;;;;;;16.48;100.00;99995.88;4985681;28;20077;-79
2021/07/01 09:44:28;;;;;;;6.13;4.35;;;;;;;16.66;100.00;99992.31;5004104;28;20026;-79
2021/07/01 09:46:57;;;;;;;6.47;4.60;;;;;;;16.59;100.00;99998.75;4986244;28;20033;-79
2021/07/01 09:49:30;;;;;;;6.25;4.25;;;;;;;16.69;100.00;99997.38;4986241;28;20027;-79
2021/07/01 09:52:00;;;;;;;6.70;4.75;;;;;;;16.60;100.00;100000.47;5004976;28;20049;-79
2021/07/01 09:54:28;;;;;;;8.02;4.47;;;;;;;16.68;100.00;99993.03;5004710;28;20075;-80
2021/07/01 09:56:56;;;;;;;8.80;4.80;;;;;;;16.60;100.00;100003.09;4985151;28;20029;-80
2021/07/01 09:59:29;;;;;;;6.93;4.32;;;;;;;16.68;100.00;100011.38;5003884;28;20026;-79
2021/07/01 10:02:12;;;;;;;6.93;4.78;;;;;;;16.77;100.00;100010.94;4985035;28;20046;-80
2021/07/01 10:04:41;;;;;;;7.18;4.75;;;;;;;16.83;100.00;100007.13;4986466;28;20050;-79
2021/07/01 10:07:10;;;;;;;9.85;4.50;;;;;;;16.85;100.00;100010.53;4985390;28;20041;-81
2021/07/01 10:09:35;;;;;;;7.45;4.70;;;;;;;16.96;100.00;100007.31;4994512;28;20050;-80
2021/07/01 10:12:01;;;;;;;7.75;4.80;;;;;;;17.02;100.00;100007.00;4995744;28;20010;-79
2021/07/01 10:14:37;;;;;;;6.63;4.68;;;;;;;16.96;100.00;100010.81;5002438;28;20010;-79
2021/07/01 10:17:20;;;;;;;7.65;4.63;;;;;;;17.04;100.00;100005.16;4993566;28;20525;-81
2021/07/01 10:20:06;;;;;;;7.93;5.20;;;;;;;17.05;100.00;100004.22;4980151;28;20058;-80
2021/07/01 10:22:40;;;;;;;8.23;5.10;;;;;;;17.23;100.00;100013.69;4978882;28;20035;-83
2021/07/01 10:25:07;;;;;;;8.63;5.05;;;;;;;17.48;100.00;100001.88;4980644;28;20018;-82
2021/07/01 10:27:41;;;;;;;7.63;4.45;;;;;;;17.74;100.00;100015.31;4984711;28;20035;-82
2021/07/01 10:30:24;;;;;;;8.85;5.40;;;;;;;17.92;100.00;100011.69;5007290;28;20030;-82
2021/07/01 10:32:54;;;;;;;8.82;5.05;;;;;;;17.93;100.00;100008.09;4991072;28;20054;-83
2021/07/01 10:35:31;;;;;;;9.52;5.40;;;;;;;18.37;100.00;100009.91;4989079;28;20025;-81
2021/07/01 10:38:05;;;;;;;7.65;5.18;;;;;;;18.57;100.00;100008.72;4985733;28;20073;-80
2021/07/01 10:41:01;;;;;;;7.22;5.00;;;;;;;18.82;100.00;100013.38;4984491;28;20030;-81
2021/07/01 10:43:47;;;;;;;7.93;5.20;;;;;;;19.02;100.00;100009.50;4982853;28;20058;-81
2021/07/01 10:46:13;;;;;;;6.95;4.95;;;;;;;19.42;100.00;100013.09;4982807;28;20026;-81
2021/07/01 10:48:40;;;;;;;8.68;5.05;;;;;;;19.35;100.00;100013.59;4983261;28;20489;-80
2021/07/01 10:51:10;;;;;;;8.13;5.70;;;;;;;19.51;100.00;100011.66;4988904;23;20534;-81
2021/07/01 10:53:41;;;;;;;7.78;4.78;;;;;;;19.41;100.00;100006.16;4984620;28;20058;-81
2021/07/01 10:56:08;;;;;;;9.02;5.20;;;;;;;19.60;100.00;100002.34;4986085;28;20033;-81
2021/07/01 10:58:39;;;;;;;8.32;5.40;;;;;;;19.61;100.00;100012.78;4986080;28;20030;-80
2021/07/01 11:01:10;;;;;;;7.88;4.65;;;;;;;19.27;100.00;100014.94;4986293;28;20386;-80
2021/07/01 11:03:36;;;;;;;7.75;5.38;;;;;;;18.96;100.00;100013.34;4986923;28;20029;-81
2021/07/01 11:06:14;;;;;;;7.05;5.13;;;;;;;18.71;100.00;100013.97;4987276;28;20035;-81
2021/07/01 11:08:56;;;;;;;7.82;5.03;;;;;;;18.75;100.00;100017.28;4985613;28;20046;-81
2021/07/01 11:11:30;;;;;;;7.07;4.38;;;;;;;18.68;100.00;100015.94;4985782;28;20126;-81
2021/07/01 11:13:58;;;;;;;16.00;4.88;;;;;;;19.05;100.00;100009.31;4987508;28;20122;-81
2021/07/01 11:16:41;;;;;;;9.05;4.93;;;;;;;19.39;100.00;100020.34;4987964;28;20561;-81
2021/07/01 11:19:17;;;;;;;8.27;4.95;;;;;;;19.78;100.00;100024.88;4988614;28;20038;-81
2021/07/01 11:21:50;;;;;;;9.35;4.93;;;;;;;19.81;100.00;100022.03;4989079;28;20023;-82
2021/07/01 11:24:21;;;;;;;9.38;4.90;;;;;;;20.02;100.00;100019.78;4990327;28;20023;-80
2021/07/01 11:26:58;;;;;;;9.80;4.65;;;;;;;20.12;100.00;100025.28;4990281;28;20085;-81